Elliniko, Greece

1:35 PM EET on March 05, 2015 (GMT +0200)
SV1GST - SOURMENA HELLINIKO | Change Station
CLOSE
Current Station
Personal Weather Station
Location: Athina, Attiki
Elevation: 300 ft
Nearby Weather Stations
Active Advisory: Thunderstorms

Elev 300 ft 37.89 °N, 23.75 °E | Updated 21 seconds ago

Mostly Cloudy
Mostly Cloudy
59.0 °F
Feels Like 59.0 °F
N
10.0
Wind Variable Wind from SSW
Gusts 15.0 mph

Today
High -- | Low -- °F
--% Chance of Precip.
Yesterday
High -- | Low -- °F
Precip. -- in
6:51 AM 6:22 PM
Full, 100% visible
Pressure 30.06 in
Visibility 6.2 miles
Clouds Few 2000 ft
Mostly Cloudy 3500 ft
Mostly Cloudy 7000 ft
Dew Point 50 °F
Humidity 72%
Rainfall in
Snow Depth Not available.
UV 3 out of 12
Pollen Not available.
Air Quality Not available.
Flu Activity Not available.
METAR LGAV 051120Z 21012KT 9999 FEW020 BKN035 BKN070 15/08 Q1018 NOSIG

More Conditions Fewer Conditions

Pressure 30.06 in
Visibility 6.2 miles
Clouds Few 2000 ft
Mostly Cloudy 3500 ft
Mostly Cloudy 7000 ft
Dew Point 50 °F
Humidity 72%
Rainfall in
Snow Depth Not available.
UV 3 out of 12
Pollen Not available.
Air Quality Not available.
Flu Activity Not available.
METAR LGAV 051120Z 21012KT 9999 FEW020 BKN035 BKN070 15/08 Q1018 NOSIG

More Conditions Fewer Conditions

10-Day Weather Forecast

Almanac

Astronomy

Mar. 05, 2015 Rise Set
Actual Time
Civil Twilight
Nautical Twilight
Astronomical Twilight
Moon
Length of Visible Light
Length of Day
Tomorrow will be .
, % of the Moon is Illuminated

Today's Extremes

Country Highs Country Lows

Community

WunderPhotos

Upload Photos

1,802,716 photos uploaded!

WunderBlogs® & News

Nearby

Air Quality

  Air Quality AQ Index Pollutant
Not available.

Snow Depth

Station Depth Elevation

Earthquake Activity

City Distance Mag. Time & Date
Minimum magnitude displayed is 2.5.

Coastal Water Temperatures

Place Temperature

Nearby Weather Stations